This is the latest recevied weather packets stored in our database for station/object KA4YMY. If no packets are shown the sender has not sent any weather packets the latest 10 day(s).
| Time | Temp. | Humidity | Pressure | Rain* | Wind** | Luminosity | Snow |
|---|---|---|---|---|---|---|---|
| 1777904716 | 21.11° C | 48% | 1017.4 hPa | 0 mm | - | - | - |
| 1777904116 | 20.56° C | 52% | 1017.3 hPa | 0 mm | - | - | - |
| 1777903516 | 19.44° C | 56% | 1017.4 hPa | 0 mm | - | - | - |
| 1777902916 | 18.89° C | 54% | 1017.4 hPa | 0 mm | - | - | - |
| 1777902316 | 18.89° C | 55% | 1017.3 hPa | 0 mm | - | - | - |
| 1777901716 | 19.44° C | 54% | 1017.4 hPa | 0 mm | - | - | - |
| 1777901116 | 18.89° C | 55% | 1017.4 hPa | 0 mm | - | - | - |
| 1777900516 | 17.78° C | 59% | 1017.4 hPa | 0 mm | - | - | - |
| 1777899916 | 17.22° C | 60% | 1017.3 hPa | 0 mm | - | - | - |
| 1777899316 | 16.67° C | 64% | 1017.2 hPa | 0 mm | - | - | - |
| 1777898716 | 15.56° C | 65% | 1017.1 hPa | 0 mm | - | - | - |
| 1777898116 | 14.44° C | 70% | 1016.9 hPa | 0 mm | - | - | - |
| 1777897516 | 13.33° C | 70% | 1016.7 hPa | 0 mm | - | - | - |
| 1777896916 | 12.22° C | 75% | 1016.8 hPa | 0 mm | - | - | - |
| 1777896316 | 11.11° C | 80% | 1016.7 hPa | 0 mm | - | - | - |
| 1777895716 | 9.44° C | 82% | 1016.6 hPa | 0 mm | - | - | - |
| 1777895116 | 8.33° C | 83% | 1016.3 hPa | 0 mm | - | - | - |
| 1777894516 | 7.78° C | 84% | 1016.6 hPa | 0 mm | - | - | - |
| 1777893916 | 7.22° C | 84% | 1016.7 hPa | 0 mm | - | - | - |
| 1777893316 | 7.22° C | 83% | 1016.6 hPa | 0 mm | - | - | - |
| 1777892716 | 7.22° C | 83% | 1016.8 hPa | 0 mm | - | - | - |
| 1777892116 | 7.22° C | 82% | 1016.6 hPa | 0 mm | - | - | - |
| 1777891516 | 7.22° C | 82% | 1016.4 hPa | 0 mm | - | - | - |
| 1777890916 | 7.22° C | 81% | 1016.2 hPa | 0 mm | - | - | - |
| 1777890316 | 7.22° C | 81% | 1016 hPa | 0 mm | - | - | - |
* Rain latest hour (hover to see other rain measurements)
** Current wind speed in m/s (hover to see current wind gust speed)